Terminal Aerodrome Forecast
Issued by NWS

Current Version | Previous Version | Text Only | Print | Product List | Glossary On
Versions: 1 2 3 4 5 6 7 8 9 10 11 12 13
000
FTUS45 KFGZ 210500
TAFSEZ
TAF
KSEZ 210526Z 2106/2206 VRB06KT P6SM SCT080 BKN110
     FM211400 18006KT P6SM SCT060 BKN100 PROB30 2115/2121 4SM TSRA
      BKN050CB
     FM212300 25010KT P6SM SCT100=

USA.gov is the U.S. government's official web portal to all federal, state and local government web resources and services.